Jackson, Michigan
Current Conditions -  °F | °C
As of 7:56 AM on Saturday 25 Oct 2014 (Local Time) from KJXN Reporting Station
Broken Clouds Broken Clouds  
Wind Chill: 53°   Ceiling: 3700
Heat Index: 53°   Visibility: 8mi
Dew Point: 49°   Wind: 8mph
Humidity: 86%   Direction: 240°WSW
Pressure: 29.86"   Gusts: NA
Location:  42.24°N, 84.4°W
Report Text: KJXN 251156Z 24007KT 8SM SCT019 BKN037 12/09 A2986 RMK AO2 SLP112 T01170094 10117 20056 58004
Loading
Personal Weather Stations






























Interactive Weather Map
Tropical Storm Tracking
New forecast layout! Learn more

10-Day Weather Forecast

Advertisements
Track Severe Weather on mobile